sensor_id;sensor_type;location;lat;lon;timestamp;pressure;altitude;pressure_sealevel;temperature;humidity
75221;BME280;63802;53.232;6.570;2023-04-16T00:00:46;102219.03;;;7.46;96.44
75221;BME280;63802;53.232;6.570;2023-04-16T00:03:13;102221.75;;;7.46;96.26
75221;BME280;63802;53.232;6.570;2023-04-16T00:05:38;102222.25;;;7.48;96.63
75221;BME280;63802;53.232;6.570;2023-04-16T00:08:04;102211.00;;;7.41;96.62
75221;BME280;63802;53.232;6.570;2023-04-16T00:10:30;102212.59;;;7.42;96.24
75221;BME280;63802;53.232;6.570;2023-04-16T00:12:55;102222.72;;;7.50;96.84
75221;BME280;63802;53.232;6.570;2023-04-16T00:15:21;102230.28;;;7.53;96.33
75221;BME280;63802;53.232;6.570;2023-04-16T00:17:46;102227.22;;;7.55;96.37
75221;BME280;63802;53.232;6.570;2023-04-16T00:20:12;102226.44;;;7.54;96.51
75221;BME280;63802;53.232;6.570;2023-04-16T00:22:38;102235.06;;;7.56;96.62
75221;BME280;63802;53.232;6.570;2023-04-16T00:25:04;102238.91;;;7.55;96.34
75221;BME280;63802;53.232;6.570;2023-04-16T00:27:29;102236.19;;;7.55;96.37
75221;BME280;63802;53.232;6.570;2023-04-16T00:29:55;102241.41;;;7.52;96.55
75221;BME280;63802;53.232;6.570;2023-04-16T00:32:20;102246.03;;;7.51;96.35
75221;BME280;63802;53.232;6.570;2023-04-16T00:34:45;102237.91;;;7.51;96.69
75221;BME280;63802;53.232;6.570;2023-04-16T00:37:11;102247.78;;;7.47;96.45
75221;BME280;63802;53.232;6.570;2023-04-16T00:39:36;102247.97;;;7.51;96.75
75221;BME280;63802;53.232;6.570;2023-04-16T00:42:02;102250.00;;;7.45;96.61
75221;BME280;63802;53.232;6.570;2023-04-16T00:44:27;102251.63;;;7.46;96.60
75221;BME280;63802;53.232;6.570;2023-04-16T00:46:55;102262.28;;;7.42;96.80
75221;BME280;63802;53.232;6.570;2023-04-16T00:49:20;102250.59;;;7.42;96.74
75221;BME280;63802;53.232;6.570;2023-04-16T00:51:46;102246.91;;;7.38;96.82
75221;BME280;63802;53.232;6.570;2023-04-16T00:54:12;102260.47;;;7.38;96.74
75221;BME280;63802;53.232;6.570;2023-04-16T00:56:37;102263.09;;;7.43;96.73
75221;BME280;63802;53.232;6.570;2023-04-16T00:59:03;102266.91;;;7.42;96.77
75221;BME280;63802;53.232;6.570;2023-04-16T01:01:29;102263.69;;;7.40;96.82
75221;BME280;63802;53.232;6.570;2023-04-16T01:03:55;102256.47;;;7.35;96.78
75221;BME280;63802;53.232;6.570;2023-04-16T01:06:20;102264.78;;;7.39;97.10
75221;BME280;63802;53.232;6.570;2023-04-16T01:08:46;102259.66;;;7.37;97.25
75221;BME280;63802;53.232;6.570;2023-04-16T01:11:14;102258.25;;;7.40;96.93
75221;BME280;63802;53.232;6.570;2023-04-16T01:13:40;102269.13;;;7.40;96.93
75221;BME280;63802;53.232;6.570;2023-04-16T01:16:07;102272.94;;;7.39;97.39
75221;BME280;63802;53.232;6.570;2023-04-16T01:18:33;102267.50;;;7.39;97.07
75221;BME280;63802;53.232;6.570;2023-04-16T01:21:01;102271.53;;;7.41;97.25
75221;BME280;63802;53.232;6.570;2023-04-16T01:23:27;102272.34;;;7.42;97.56
75221;BME280;63802;53.232;6.570;2023-04-16T01:25:52;102247.34;;;7.31;97.05
75221;BME280;63802;53.232;6.570;2023-04-16T01:28:20;102269.34;;;7.43;97.31
75221;BME280;63802;53.232;6.570;2023-04-16T01:30:46;102251.22;;;7.39;97.47
75221;BME280;63802;53.232;6.570;2023-04-16T01:33:13;102268.69;;;7.47;97.33
75221;BME280;63802;53.232;6.570;2023-04-16T01:35:40;102264.69;;;7.44;97.16
75221;BME280;63802;53.232;6.570;2023-04-16T01:38:06;102261.19;;;7.43;97.35
75221;BME280;63802;53.232;6.570;2023-04-16T01:40:33;102269.81;;;7.46;97.25
75221;BME280;63802;53.232;6.570;2023-04-16T01:43:00;102261.47;;;7.42;97.28
75221;BME280;63802;53.232;6.570;2023-04-16T01:45:25;102254.44;;;7.41;97.75
75221;BME280;63802;53.232;6.570;2023-04-16T01:47:51;102264.50;;;7.40;97.42
75221;BME280;63802;53.232;6.570;2023-04-16T01:50:18;102264.28;;;7.37;97.37
75221;BME280;63802;53.232;6.570;2023-04-16T01:52:44;102265.31;;;7.41;97.35
75221;BME280;63802;53.232;6.570;2023-04-16T01:55:10;102268.03;;;7.41;97.44
75221;BME280;63802;53.232;6.570;2023-04-16T01:57:35;102274.56;;;7.40;97.44
75221;BME280;63802;53.232;6.570;2023-04-16T02:00:02;102259.06;;;7.40;97.66
75221;BME280;63802;53.232;6.570;2023-04-16T02:02:28;102268.81;;;7.41;97.37
75221;BME280;63802;53.232;6.570;2023-04-16T02:04:54;102272.34;;;7.42;97.76
75221;BME280;63802;53.232;6.570;2023-04-16T02:07:23;102272.81;;;7.44;97.89
75221;BME280;63802;53.232;6.570;2023-04-16T02:09:49;102269.81;;;7.46;97.76
75221;BME280;63802;53.232;6.570;2023-04-16T02:12:18;102267.28;;;7.49;98.00
75221;BME280;63802;53.232;6.570;2023-04-16T02:14:43;102271.41;;;7.47;97.98
75221;BME280;63802;53.232;6.570;2023-04-16T02:17:09;102276.13;;;7.55;97.80
75221;BME280;63802;53.232;6.570;2023-04-16T02:19:35;102272.59;;;7.54;98.12
75221;BME280;63802;53.232;6.570;2023-04-16T02:22:00;102286.19;;;7.54;97.80
75221;BME280;63802;53.232;6.570;2023-04-16T02:24:26;102272.00;;;7.57;97.84
75221;BME280;63802;53.232;6.570;2023-04-16T02:26:52;102282.88;;;7.57;97.69
75221;BME280;63802;53.232;6.570;2023-04-16T02:29:18;102281.78;;;7.58;97.87
75221;BME280;63802;53.232;6.570;2023-04-16T02:31:43;102275.22;;;7.59;97.79
75221;BME280;63802;53.232;6.570;2023-04-16T02:34:09;102279.34;;;7.57;97.71
75221;BME280;63802;53.232;6.570;2023-04-16T02:36:35;102280.16;;;7.57;97.84
75221;BME280;63802;53.232;6.570;2023-04-16T02:39:00;102268.91;;;7.50;98.11
75221;BME280;63802;53.232;6.570;2023-04-16T02:41:26;102276.94;;;7.55;98.15
75221;BME280;63802;53.232;6.570;2023-04-16T02:43:51;102273.72;;;7.53;98.01
75221;BME280;63802;53.232;6.570;2023-04-16T02:46:16;102270.91;;;7.58;97.89
75221;BME280;63802;53.232;6.570;2023-04-16T02:48:42;102272.59;;;7.54;97.84
75221;BME280;63802;53.232;6.570;2023-04-16T02:51:08;102278.53;;;7.56;98.26
75221;BME280;63802;53.232;6.570;2023-04-16T02:53:33;102256.41;;;7.49;97.64
75221;BME280;63802;53.232;6.570;2023-04-16T02:55:59;102246.47;;;7.44;97.87
75221;BME280;63802;53.232;6.570;2023-04-16T02:58:25;102263.47;;;7.50;97.80
75221;BME280;63802;53.232;6.570;2023-04-16T03:00:52;102255.94;;;7.47;97.72
75221;BME280;63802;53.232;6.570;2023-04-16T03:03:18;102255.44;;;7.45;98.08
75221;BME280;63802;53.232;6.570;2023-04-16T03:05:44;102255.44;;;7.45;98.27
75221;BME280;63802;53.232;6.570;2023-04-16T03:08:13;102258.97;;;7.46;98.02
75221;BME280;63802;53.232;6.570;2023-04-16T03:10:39;102266.91;;;7.42;97.90
75221;BME280;63802;53.232;6.570;2023-04-16T03:13:05;102261.47;;;7.42;97.88
75221;BME280;63802;53.232;6.570;2023-04-16T03:15:31;102271.53;;;7.41;97.78
75221;BME280;63802;53.232;6.570;2023-04-16T03:17:56;102270.75;;;7.41;97.80
75221;BME280;63802;53.232;6.570;2023-04-16T03:20:22;102263.53;;;7.36;97.94
75221;BME280;63802;53.232;6.570;2023-04-16T03:22:48;102266.41;;;7.40;97.98
75221;BME280;63802;53.232;6.570;2023-04-16T03:25:16;102265.91;;;7.38;97.68
75221;BME280;63802;53.232;6.570;2023-04-16T03:27:42;102278.38;;;7.39;98.17
75221;BME280;63802;53.232;6.570;2023-04-16T03:30:12;102273.47;;;7.41;97.83
75221;BME280;63802;53.232;6.570;2023-04-16T03:32:38;102280.59;;;7.37;97.89
75221;BME280;63802;53.232;6.570;2023-04-16T03:35:05;102284.94;;;7.38;97.74
75221;BME280;63802;53.232;6.570;2023-04-16T03:37:32;102304.44;;;7.40;97.65
75221;BME280;63802;53.232;6.570;2023-04-16T03:39:58;102290.66;;;7.36;97.76
75221;BME280;63802;53.232;6.570;2023-04-16T03:42:23;102288.94;;;7.40;97.66
75221;BME280;63802;53.232;6.570;2023-04-16T03:44:49;102296.88;;;7.37;98.09
75221;BME280;63802;53.232;6.570;2023-04-16T03:47:15;102288.44;;;7.38;98.02
75221;BME280;63802;53.232;6.570;2023-04-16T03:49:40;102292.88;;;7.34;97.81
75221;BME280;63802;53.232;6.570;2023-04-16T03:52:06;102295.28;;;7.36;98.04
75221;BME280;63802;53.232;6.570;2023-04-16T03:54:31;102296.88;;;7.37;97.81
75221;BME280;63802;53.232;6.570;2023-04-16T03:56:57;102294.16;;;7.37;97.63
75221;BME280;63802;53.232;6.570;2023-04-16T03:59:22;102305.84;;;7.37;97.90
75221;BME280;63802;53.232;6.570;2023-04-16T04:01:48;102296.09;;;7.36;97.58
75221;BME280;63802;53.232;6.570;2023-04-16T04:04:13;102294.28;;;7.32;97.87
75221;BME280;63802;53.232;6.570;2023-04-16T04:06:39;102302.94;;;7.34;98.08
75221;BME280;63802;53.232;6.570;2023-04-16T04:09:05;102303.53;;;7.31;98.10
75221;BME280;63802;53.232;6.570;2023-04-16T04:11:30;102304.63;;;7.30;97.60
75221;BME280;63802;53.232;6.570;2023-04-16T04:13:56;102305.13;;;7.32;97.72
75221;BME280;63802;53.232;6.570;2023-04-16T04:16:21;102311.19;;;7.29;97.83
75221;BME280;63802;53.232;6.570;2023-04-16T04:18:46;102308.59;;;7.24;98.12
75221;BME280;63802;53.232;6.570;2023-04-16T04:21:12;102302.56;;;7.27;97.80
75221;BME280;63802;53.232;6.570;2023-04-16T04:23:37;102307.66;;;7.28;98.03
75221;BME280;63802;53.232;6.570;2023-04-16T04:26:03;102316.00;;;7.32;97.71
75221;BME280;63802;53.232;6.570;2023-04-16T04:28:33;102315.50;;;7.30;97.65
75221;BME280;63802;53.232;6.570;2023-04-16T04:31:00;102325.88;;;7.28;98.18
75221;BME280;63802;53.232;6.570;2023-04-16T04:33:28;102320.44;;;7.28;97.89
75221;BME280;63802;53.232;6.570;2023-04-16T04:35:54;102328.09;;;7.26;98.00
75221;BME280;63802;53.232;6.570;2023-04-16T04:38:20;102324.28;;;7.27;98.19
75221;BME280;63802;53.232;6.570;2023-04-16T04:40:52;102324.28;;;7.27;98.25
75221;BME280;63802;53.232;6.570;2023-04-16T04:43:20;102323.66;;;7.30;98.26
75221;BME280;63802;53.232;6.570;2023-04-16T04:45:47;102318.84;;;7.27;97.76
75221;BME280;63802;53.232;6.570;2023-04-16T04:48:16;102327.50;;;7.29;98.15
75221;BME280;63802;53.232;6.570;2023-04-16T04:50:43;102327.00;;;7.27;98.17
75221;BME280;63802;53.232;6.570;2023-04-16T04:53:09;102313.00;;;7.20;98.20
75221;BME280;63802;53.232;6.570;2023-04-16T04:55:36;102334.50;;;7.30;97.71
75221;BME280;63802;53.232;6.570;2023-04-16T04:58:03;102332.91;;;7.29;97.86
75221;BME280;63802;53.232;6.570;2023-04-16T05:00:29;102339.66;;;7.31;97.82
75221;BME280;63802;53.232;6.570;2023-04-16T05:02:54;102338.84;;;7.31;97.95
75221;BME280;63802;53.232;6.570;2023-04-16T05:05:20;102339.94;;;7.30;98.08
75221;BME280;63802;53.232;6.570;2023-04-16T05:07:46;102350.00;;;7.29;98.18
75221;BME280;63802;53.232;6.570;2023-04-16T05:10:11;102328.69;;;7.23;98.07
75221;BME280;63802;53.232;6.570;2023-04-16T05:12:37;102347.50;;;7.33;98.35
75221;BME280;63802;53.232;6.570;2023-04-16T05:15:04;102337.22;;;7.30;98.15
75221;BME280;63802;53.232;6.570;2023-04-16T05:17:30;102343.16;;;7.32;98.43
75221;BME280;63802;53.232;6.570;2023-04-16T05:19:56;102345.38;;;7.30;98.00
75221;BME280;63802;53.232;6.570;2023-04-16T05:22:22;102350.50;;;7.31;98.20
75221;BME280;63802;53.232;6.570;2023-04-16T05:24:47;102352.69;;;7.29;97.98
75221;BME280;63802;53.232;6.570;2023-04-16T05:27:13;102356.84;;;7.27;98.52
75221;BME280;63802;53.232;6.570;2023-04-16T05:29:39;102353.44;;;7.21;98.39
75221;BME280;63802;53.232;6.570;2023-04-16T05:32:05;102356.44;;;7.20;97.86
75221;BME280;63802;53.232;6.570;2023-04-16T05:34:30;102367.19;;;7.25;98.17
75221;BME280;63802;53.232;6.570;2023-04-16T05:36:55;102373.94;;;7.27;98.22
75221;BME280;63802;53.232;6.570;2023-04-16T05:39:22;102374.25;;;7.26;97.96
75221;BME280;63802;53.232;6.570;2023-04-16T05:41:47;102370.94;;;7.29;98.42
75221;BME280;63802;53.232;6.570;2023-04-16T05:44:13;102378.16;;;7.33;98.22
75221;BME280;63802;53.232;6.570;2023-04-16T05:46:39;102378.34;;;7.37;97.92
75221;BME280;63802;53.232;6.570;2023-04-16T05:49:05;102378.75;;;7.44;98.35
75221;BME280;63802;53.232;6.570;2023-04-16T05:51:30;102370.50;;;7.49;98.26
75221;BME280;63802;53.232;6.570;2023-04-16T05:53:56;102377.56;;;7.50;98.14
75221;BME280;63802;53.232;6.570;2023-04-16T05:56:22;102371.63;;;7.48;98.14
75221;BME280;63802;53.232;6.570;2023-04-16T05:58:47;102376.94;;;7.53;97.95
75221;BME280;63802;53.232;6.570;2023-04-16T06:01:13;102377.94;;;7.57;97.89
75221;BME280;63802;53.232;6.570;2023-04-16T06:03:38;102383.06;;;7.59;98.08
75221;BME280;63802;53.232;6.570;2023-04-16T06:06:04;102378.13;;;7.61;97.85
75221;BME280;63802;53.232;6.570;2023-04-16T06:08:30;102376.72;;;7.63;97.72
75221;BME280;63802;53.232;6.570;2023-04-16T06:10:55;102389.81;;;7.75;97.85
75221;BME280;63802;53.232;6.570;2023-04-16T06:13:21;102388.38;;;7.77;98.08
75221;BME280;63802;53.232;6.570;2023-04-16T06:15:46;102398.63;;;7.80;97.71
75221;BME280;63802;53.232;6.570;2023-04-16T06:18:12;102400.13;;;7.86;98.08
75221;BME280;63802;53.232;6.570;2023-04-16T06:20:37;102410.38;;;7.89;97.77
75221;BME280;63802;53.232;6.570;2023-04-16T06:23:03;102399.81;;;7.88;97.96
75221;BME280;63802;53.232;6.570;2023-04-16T06:25:28;102412.69;;;7.96;98.17
75221;BME280;63802;53.232;6.570;2023-04-16T06:27:53;102397.50;;;7.95;97.99
75221;BME280;63802;53.232;6.570;2023-04-16T06:30:19;102417.50;;;8.13;97.87
75221;BME280;63802;53.232;6.570;2023-04-16T06:32:45;102405.44;;;8.05;97.82
75221;BME280;63802;53.232;6.570;2023-04-16T06:35:11;102417.66;;;8.30;97.66
75221;BME280;63802;53.232;6.570;2023-04-16T06:37:36;102421.06;;;8.35;97.79
75221;BME280;63802;53.232;6.570;2023-04-16T06:40:03;102423.06;;;8.43;97.67
75221;BME280;63802;53.232;6.570;2023-04-16T06:42:31;102419.53;;;8.43;97.57
75221;BME280;63802;53.232;6.570;2023-04-16T06:44:56;102430.66;;;8.55;97.43
75221;BME280;63802;53.232;6.570;2023-04-16T06:47:22;102422.97;;;8.57;97.26
75221;BME280;63802;53.232;6.570;2023-04-16T06:49:48;102422.50;;;8.55;96.85
75221;BME280;63802;53.232;6.570;2023-04-16T06:52:13;102423.50;;;8.59;96.77
75221;BME280;63802;53.232;6.570;2023-04-16T06:54:41;102427.69;;;8.65;97.10
75221;BME280;63802;53.232;6.570;2023-04-16T06:57:07;102436.84;;;8.69;96.71
75221;BME280;63802;53.232;6.570;2023-04-16T06:59:32;102418.34;;;8.57;96.76
75221;BME280;63802;53.232;6.570;2023-04-16T07:01:58;102418.44;;;8.66;96.75
75221;BME280;63802;53.232;6.570;2023-04-16T07:04:23;102438.00;;;8.76;96.54
75221;BME280;63802;53.232;6.570;2023-04-16T07:06:52;102440.13;;;8.80;96.02
75221;BME280;63802;53.232;6.570;2023-04-16T07:09:17;102434.19;;;8.77;95.98
75221;BME280;63802;53.232;6.570;2023-04-16T07:11:43;102447.09;;;8.72;95.73
75221;BME280;63802;53.232;6.570;2023-04-16T07:14:09;102439.78;;;8.81;95.85
75221;BME280;63802;53.232;6.570;2023-04-16T07:16:35;102441.78;;;8.89;95.96
75221;BME280;63802;53.232;6.570;2023-04-16T07:19:02;102449.38;;;8.78;95.62
75221;BME280;63802;53.232;6.570;2023-04-16T07:21:28;102447.22;;;8.89;95.61
75221;BME280;63802;53.232;6.570;2023-04-16T07:23:53;102442.13;;;8.96;95.36
75221;BME280;63802;53.232;6.570;2023-04-16T07:26:19;102451.03;;;8.88;94.92
75221;BME280;63802;53.232;6.570;2023-04-16T07:28:44;102434.78;;;8.74;95.12
75221;BME280;63802;53.232;6.570;2023-04-16T07:31:10;102445.25;;;8.81;95.04
75221;BME280;63802;53.232;6.570;2023-04-16T07:33:37;102443.91;;;8.70;94.74
75221;BME280;63802;53.232;6.570;2023-04-16T07:36:03;102449.22;;;8.75;94.60
75221;BME280;63802;53.232;6.570;2023-04-16T07:38:28;102457.13;;;8.85;94.31
75221;BME280;63802;53.232;6.570;2023-04-16T07:40:54;102457.91;;;8.86;94.29
75221;BME280;63802;53.232;6.570;2023-04-16T07:43:20;102451.50;;;8.82;94.26
75221;BME280;63802;53.232;6.570;2023-04-16T07:45:45;102444.88;;;8.74;93.77
75221;BME280;63802;53.232;6.570;2023-04-16T07:48:11;102457.19;;;8.94;93.69
75221;BME280;63802;53.232;6.570;2023-04-16T07:50:36;102465.81;;;9.18;93.78
75221;BME280;63802;53.232;6.570;2023-04-16T07:53:02;102460.53;;;9.21;93.29
75221;BME280;63802;53.232;6.570;2023-04-16T07:55:27;102472.94;;;9.36;93.41
75221;BME280;63802;53.232;6.570;2023-04-16T07:57:53;102465.28;;;9.38;93.03
75221;BME280;63802;53.232;6.570;2023-04-16T08:00:19;102464.53;;;9.55;92.82
75221;BME280;63802;53.232;6.570;2023-04-16T08:02:45;102457.66;;;9.57;92.55
75221;BME280;63802;53.232;6.570;2023-04-16T08:05:11;102466.47;;;9.63;92.19
75221;BME280;63802;53.232;6.570;2023-04-16T08:07:37;102463.28;;;9.61;91.97
75221;BME280;63802;53.232;6.570;2023-04-16T08:10:04;102475.31;;;9.68;91.88
75221;BME280;63802;53.232;6.570;2023-04-16T08:12:30;102462.22;;;9.79;91.67
75221;BME280;63802;53.232;6.570;2023-04-16T08:14:56;102462.91;;;9.93;91.52
75221;BME280;63802;53.232;6.570;2023-04-16T08:17:21;102473.19;;;10.04;90.93
75221;BME280;63802;53.232;6.570;2023-04-16T08:19:46;102478.00;;;10.07;90.77
75221;BME280;63802;53.232;6.570;2023-04-16T08:22:12;102467.31;;;10.28;90.38
75221;BME280;63802;53.232;6.570;2023-04-16T08:24:37;102479.84;;;10.29;90.08
75221;BME280;63802;53.232;6.570;2023-04-16T08:27:03;102484.66;;;10.41;89.38
75221;BME280;63802;53.232;6.570;2023-04-16T08:29:29;102487.84;;;10.68;89.17
75221;BME280;63802;53.232;6.570;2023-04-16T08:31:55;102499.06;;;10.93;88.96
75221;BME280;63802;53.232;6.570;2023-04-16T08:34:20;102493.78;;;10.88;88.14
75221;BME280;63802;53.232;6.570;2023-04-16T08:36:46;102485.13;;;10.77;87.56
75221;BME280;63802;53.232;6.570;2023-04-16T08:39:12;102496.97;;;10.98;87.34
75221;BME280;63802;53.232;6.570;2023-04-16T08:41:40;102485.84;;;11.12;86.55
75221;BME280;63802;53.232;6.570;2023-04-16T08:44:08;102487.59;;;11.25;86.25
75221;BME280;63802;53.232;6.570;2023-04-16T08:46:36;102485.72;;;11.55;85.01
75221;BME280;63802;53.232;6.570;2023-04-16T08:49:05;102490.03;;;11.73;84.11
75221;BME280;63802;53.232;6.570;2023-04-16T08:51:34;102490.16;;;11.76;83.45
75221;BME280;63802;53.232;6.570;2023-04-16T08:54:08;102482.81;;;11.68;83.25
75221;BME280;63802;53.232;6.570;2023-04-16T08:56:40;102497.16;;;11.94;83.27
75221;BME280;63802;53.232;6.570;2023-04-16T08:59:08;102508.59;;;11.88;83.04
75221;BME280;63802;53.232;6.570;2023-04-16T09:01:34;102505.91;;;12.08;82.87
75221;BME280;63802;53.232;6.570;2023-04-16T09:04:00;102504.66;;;12.27;82.58
75221;BME280;63802;53.232;6.570;2023-04-16T09:06:27;102503.94;;;12.59;81.56
75221;BME280;63802;53.232;6.570;2023-04-16T09:08:53;102491.47;;;12.49;81.11
75221;BME280;63802;53.232;6.570;2023-04-16T09:11:20;102506.34;;;12.40;80.83
75221;BME280;63802;53.232;6.570;2023-04-16T09:13:46;102505.38;;;12.36;80.71
75221;BME280;63802;53.232;6.570;2023-04-16T09:16:13;102510.34;;;12.42;80.35
75221;BME280;63802;53.232;6.570;2023-04-16T09:18:39;102509.63;;;12.54;80.28
75221;BME280;63802;53.232;6.570;2023-04-16T09:21:08;102515.50;;;12.44;79.87
75221;BME280;63802;53.232;6.570;2023-04-16T09:23:36;102504.06;;;12.42;80.34
75221;BME280;63802;53.232;6.570;2023-04-16T09:26:03;102490.78;;;12.52;79.21
75221;BME280;63802;53.232;6.570;2023-04-16T09:28:46;102510.28;;;12.51;78.95
75221;BME280;63802;53.232;6.570;2023-04-16T09:31:17;102493.19;;;12.54;78.68
75221;BME280;63802;53.232;6.570;2023-04-16T09:33:59;102499.84;;;12.65;78.75
75221;BME280;63802;53.232;6.570;2023-04-16T09:36:25;102499.84;;;12.65;77.96
75221;BME280;63802;53.232;6.570;2023-04-16T09:38:52;102516.97;;;12.62;78.10
75221;BME280;63802;53.232;6.570;2023-04-16T09:41:19;102515.88;;;12.75;77.43
75221;BME280;63802;53.232;6.570;2023-04-16T09:43:53;102517.44;;;12.64;77.51
75221;BME280;63802;53.232;6.570;2023-04-16T09:46:43;102528.47;;;12.76;77.57
75221;BME280;63802;53.232;6.570;2023-04-16T09:49:16;102541.53;;;12.70;77.74
75221;BME280;63802;53.232;6.570;2023-04-16T09:51:48;102534.59;;;12.73;78.38
75221;BME280;63802;53.232;6.570;2023-04-16T09:54:18;102526.56;;;12.89;78.17
75221;BME280;63802;53.232;6.570;2023-04-16T09:56:47;102521.63;;;12.82;78.49
75221;BME280;63802;53.232;6.570;2023-04-16T09:59:19;102513.19;;;12.87;78.55
75221;BME280;63802;53.232;6.570;2023-04-16T10:01:48;102534.41;;;13.31;77.84
75221;BME280;63802;53.232;6.570;2023-04-16T10:04:14;102527.69;;;13.41;77.00
75221;BME280;63802;53.232;6.570;2023-04-16T10:06:40;102533.53;;;13.52;76.86
75221;BME280;63802;53.232;6.570;2023-04-16T10:09:07;102536.72;;;13.54;76.60
75221;BME280;63802;53.232;6.570;2023-04-16T10:11:33;102534.66;;;13.38;76.58
75221;BME280;63802;53.232;6.570;2023-04-16T10:13:59;102538.53;;;13.37;75.92
75221;BME280;63802;53.232;6.570;2023-04-16T10:16:31;102515.19;;;12.99;76.63
75221;BME280;63802;53.232;6.570;2023-04-16T10:18:57;102508.31;;;13.25;76.65
75221;BME280;63802;53.232;6.570;2023-04-16T10:21:26;102513.03;;;13.37;76.14
75221;BME280;63802;53.232;6.570;2023-04-16T10:24:01;102538.81;;;13.69;76.18
75221;BME280;63802;53.232;6.570;2023-04-16T10:26:28;102544.06;;;13.62;76.02
75221;BME280;63802;53.232;6.570;2023-04-16T10:28:55;102530.13;;;13.91;74.44
75221;BME280;63802;53.232;6.570;2023-04-16T10:31:21;102544.88;;;13.62;74.20
75221;BME280;63802;53.232;6.570;2023-04-16T10:33:47;102526.66;;;13.46;74.11
75221;BME280;63802;53.232;6.570;2023-04-16T10:36:14;102549.41;;;13.58;74.80
75221;BME280;63802;53.232;6.570;2023-04-16T10:38:46;102551.09;;;13.38;75.75
75221;BME280;63802;53.232;6.570;2023-04-16T10:41:12;102546.97;;;13.32;76.57
75221;BME280;63802;53.232;6.570;2023-04-16T10:43:42;102543.25;;;13.61;76.82
75221;BME280;63802;53.232;6.570;2023-04-16T10:46:43;102544.53;;;14.00;74.80
75221;BME280;63802;53.232;6.570;2023-04-16T10:49:19;102555.50;;;13.76;74.67
75221;BME280;63802;53.232;6.570;2023-04-16T10:52:03;102555.25;;;13.69;74.30
75221;BME280;63802;53.232;6.570;2023-04-16T10:54:34;102551.25;;;13.66;74.79
75221;BME280;63802;53.232;6.570;2023-04-16T10:57:04;102545.19;;;13.73;74.42
75221;BME280;63802;53.232;6.570;2023-04-16T10:59:34;102544.00;;;13.37;74.26
75221;BME280;63802;53.232;6.570;2023-04-16T11:02:06;102540.66;;;12.99;75.26
75221;BME280;63802;53.232;6.570;2023-04-16T11:04:43;102538.03;;;13.23;75.39
75221;BME280;63802;53.232;6.570;2023-04-16T11:12:14;102549.69;;;13.00;75.90
75221;BME280;63802;53.232;6.570;2023-04-16T11:14:41;102553.19;;;12.88;76.82
75221;BME280;63802;53.232;6.570;2023-04-16T11:17:07;102547.00;;;12.91;77.20
75221;BME280;63802;53.232;6.570;2023-04-16T11:19:34;102540.91;;;13.39;77.34
75221;BME280;63802;53.232;6.570;2023-04-16T11:22:01;102545.19;;;13.73;76.04
75221;BME280;63802;53.232;6.570;2023-04-16T11:24:31;102551.41;;;13.94;74.96
75221;BME280;63802;53.232;6.570;2023-04-16T11:26:57;102546.16;;;14.13;74.04
75221;BME280;63802;53.232;6.570;2023-04-16T11:29:22;102543.63;;;14.20;73.14
75221;BME280;63802;53.232;6.570;2023-04-16T11:31:52;102548.41;;;14.23;73.00
75221;BME280;63802;53.232;6.570;2023-04-16T11:34:18;102551.28;;;14.51;72.10
75221;BME280;63802;53.232;6.570;2023-04-16T11:36:45;102549.88;;;14.21;72.18
75221;BME280;63802;53.232;6.570;2023-04-16T11:39:11;102546.56;;;14.51;72.27
75221;BME280;63802;53.232;6.570;2023-04-16T11:41:44;102541.78;;;14.12;71.95
75221;BME280;63802;53.232;6.570;2023-04-16T11:46:42;102547.50;;;13.83;73.25
75221;BME280;63802;53.232;6.570;2023-04-16T11:49:07;102562.03;;;13.95;73.57
75221;BME280;63802;53.232;6.570;2023-04-16T11:51:38;102547.84;;;13.81;73.55
75221;BME280;63802;53.232;6.570;2023-04-16T11:54:05;102552.97;;;13.59;74.08
75221;BME280;63802;53.232;6.570;2023-04-16T11:56:34;102564.19;;;13.90;74.00
75221;BME280;63802;53.232;6.570;2023-04-16T11:59:10;102567.75;;;13.90;73.70
75221;BME280;63802;53.232;6.570;2023-04-16T12:01:37;102570.59;;;14.06;73.73
75221;BME280;63802;53.232;6.570;2023-04-16T12:04:03;102566.47;;;13.76;73.27
75221;BME280;63802;53.232;6.570;2023-04-16T12:06:29;102547.59;;;13.62;73.69
75221;BME280;63802;53.232;6.570;2023-04-16T12:08:56;102563.72;;;13.76;73.99
75221;BME280;63802;53.232;6.570;2023-04-16T12:11:37;102560.78;;;13.81;74.43
75221;BME280;63802;53.232;6.570;2023-04-16T12:14:10;102562.47;;;13.73;74.73
75221;BME280;63802;53.232;6.570;2023-04-16T12:16:35;102564.31;;;13.81;74.59
75221;BME280;63802;53.232;6.570;2023-04-16T12:19:02;102566.72;;;13.83;73.72
75221;BME280;63802;53.232;6.570;2023-04-16T12:21:45;102553.94;;;13.42;73.88
75221;BME280;63802;53.232;6.570;2023-04-16T12:24:12;102560.84;;;13.48;74.24
75221;BME280;63802;53.232;6.570;2023-04-16T12:26:46;102566.25;;;13.69;73.74
75221;BME280;63802;53.232;6.570;2023-04-16T12:29:24;102560.75;;;13.69;74.04
75221;BME280;63802;53.232;6.570;2023-04-16T12:31:51;102565.56;;;13.72;74.23
75221;BME280;63802;53.232;6.570;2023-04-16T12:34:19;102574.06;;;13.91;74.14
75221;BME280;63802;53.232;6.570;2023-04-16T12:36:45;102568.88;;;14.01;73.90
75221;BME280;63802;53.232;6.570;2023-04-16T12:39:12;102576.84;;;14.79;72.25
75221;BME280;63802;53.232;6.570;2023-04-16T12:41:40;102574.06;;;14.39;71.35
75221;BME280;63802;53.232;6.570;2023-04-16T12:44:08;102575.09;;;14.23;71.39
75221;BME280;63802;53.232;6.570;2023-04-16T12:46:40;102577.34;;;14.21;72.00
75221;BME280;63802;53.232;6.570;2023-04-16T12:49:06;102575.19;;;14.50;71.26
75221;BME280;63802;53.232;6.570;2023-04-16T12:51:33;102573.56;;;14.49;71.12
75221;BME280;63802;53.232;6.570;2023-04-16T12:54:00;102585.28;;;14.46;71.30
75221;BME280;63802;53.232;6.570;2023-04-16T12:56:25;102578.16;;;13.97;71.71
75221;BME280;63802;53.232;6.570;2023-04-16T12:58:51;102576.22;;;14.09;71.53
75221;BME280;63802;53.232;6.570;2023-04-16T13:01:21;102577.47;;;14.00;71.80
75221;BME280;63802;53.232;6.570;2023-04-16T13:03:47;102585.22;;;13.74;73.17